Time;durP1;ratioP1;P1;durP2;ratioP2;P2;SDS_P1;SDS_P2;PMS_P1;PMS_P2;Temp;Humidity;BMP_temperature;BMP_pressure;BME280_temperature;BME280_humidity;BME280_pressure;Samples;Min_cycle;Max_cycle;Signal;HPM_P1;HPM_P2
2021/04/07 00:00:08;;;;;;;;;;;;;;;-2.29;100.00;95154.19;1031068;28;19914;-69
2021/04/07 00:00:39;;;;;;;;;;;;;;;-2.28;100.00;95155.81;1038015;28;20431;-69
2021/04/07 00:01:10;;;;;;;;;;;;;;;-2.26;100.00;95153.81;1031471;28;19918;-69
2021/04/07 00:01:40;;;;;;;;;;;;;;;-2.29;100.00;95154.19;1024053;28;20471;-70
2021/04/07 00:02:11;;;;;;;;;;;;;;;-2.35;100.00;95160.13;1026995;28;19913;-69
2021/04/07 00:02:41;;;;;;;;;;;;;;;-2.31;100.00;95160.50;1025953;28;19914;-69
2021/04/07 00:03:11;;;;;;;;;;;;;;;-2.28;100.00;95160.94;1027530;28;19918;-70
2021/04/07 00:03:42;;;;;;;;;;;;;;;-2.29;100.00;95164.47;1023660;28;19922;-68
2021/04/07 00:04:12;;;;;;;;;;;;;;;-2.39;100.00;95158.94;1032482;28;19918;-70
2021/04/07 00:04:58;;;;;;;;;;;;;;;-2.41;100.00;95166.06;1026313;28;19976;-70
2021/04/07 00:05:30;;;;;;;;;;;;;;;-2.45;100.00;95159.72;1031464;28;19925;-69
2021/04/07 00:06:00;;;;;;;;;;;;;;;-2.43;100.00;95158.53;1028530;28;19914;-70
2021/04/07 00:06:34;;;;;;;;;;;;;;;-2.41;100.00;95163.50;1026936;28;20012;-70
2021/04/07 00:07:04;;;;;;;;;;;;;;;-2.43;100.00;95155.19;1030385;28;19940;-70
2021/04/07 00:07:35;;;;;;;;;;;;;;;-2.45;100.00;95154.56;1036089;28;19964;-70
2021/04/07 00:08:05;;;;;;;;;;;;;;;-2.46;100.00;95158.13;1036120;28;19967;-70
2021/04/07 00:08:36;;;;;;;;;;;;;;;-2.48;100.00;95160.09;1030766;28;19922;-69
2021/04/07 00:09:07;;;;;;;;;;;;;;;-2.52;100.00;95159.69;1027702;28;19918;-70
2021/04/07 00:09:37;;;;;;;;;;;;;;;-2.50;100.00;95157.75;1035633;28;20007;-69
2021/04/07 00:10:09;;;;;;;;;;;;;;;-2.49;100.00;95155.97;1028300;28;20403;-66
2021/04/07 00:10:40;;;;;;;;;;;;;;;-2.55;100.00;95160.09;1021804;29;20331;-69
2021/04/07 00:11:10;;;;;;;;;;;;;;;-2.56;100.00;95155.16;1026733;28;19918;-70
2021/04/07 00:11:40;;;;;;;;;;;;;;;-2.56;100.00;95155.16;1036010;28;20290;-70
2021/04/07 00:12:11;;;;;;;;;;;;;;;-2.57;100.00;95156.16;1031947;28;19913;-71
2021/04/07 00:12:41;;;;;;;;;;;;;;;-2.57;100.00;95166.44;1030957;28;19909;-69
2021/04/07 00:13:12;;;;;;;;;;;;;;;-2.64;100.00;95162.06;1034159;28;19905;-69
2021/04/07 00:13:43;;;;;;;;;;;;;;;-2.62;100.00;95157.53;1026876;28;19902;-69
2021/04/07 00:14:13;;;;;;;;;;;;;;;-2.63;100.00;95152.59;1019759;29;20167;-70
2021/04/07 00:14:43;;;;;;;;;;;;;;;-2.61;100.00;95151.41;1025878;28;19910;-69
2021/04/07 00:15:15;;;;;;;;;;;;;;;-2.57;100.00;95161.28;1037558;28;19917;-70
2021/04/07 00:15:45;;;;;;;;;;;;;;;-2.63;100.00;95147.44;1031367;28;19910;-70
2021/04/07 00:16:15;;;;;;;;;;;;;;;-2.67;100.00;95149.59;1027931;28;20004;-70
2021/04/07 00:16:46;;;;;;;;;;;;;;;-2.86;100.00;95128.03;1030592;28;19909;-68
2021/04/07 00:17:17;;;;;;;;;;;;;;;-2.66;100.00;95158.88;1034295;28;19905;-69
2021/04/07 00:17:47;;;;;;;;;;;;;;;-2.65;100.00;95155.34;1027447;28;19910;-70
2021/04/07 00:18:18;;;;;;;;;;;;;;;-2.59;100.00;95155.53;1028354;28;19956;-70
2021/04/07 00:18:48;;;;;;;;;;;;;;;-2.56;100.00;95152.59;1023121;29;19945;-70
2021/04/07 00:19:18;;;;;;;;;;;;;;;-2.59;100.00;95147.84;1029404;28;19913;-69
2021/04/07 00:19:49;;;;;;;;;;;;;;;-2.59;100.00;95156.34;1035581;28;19910;-70
2021/04/07 00:20:20;;;;;;;;;;;;;;;-2.58;100.00;95150.22;1027916;28;19910;-70
2021/04/07 00:20:50;;;;;;;;;;;;;;;-2.57;100.00;95151.03;1031665;28;19905;-70
2021/04/07 00:21:21;;;;;;;;;;;;;;;-2.60;100.00;95157.31;1029380;28;20000;-70
2021/04/07 00:21:51;;;;;;;;;;;;;;;-2.61;100.00;95148.84;1027187;28;20363;-69
2021/04/07 00:22:21;;;;;;;;;;;;;;;-2.59;100.00;95148.63;1023348;28;20376;-68
2021/04/07 00:22:52;;;;;;;;;;;;;;;-2.61;100.00;95145.47;1027951;28;20290;-70
2021/04/07 00:23:22;;;;;;;;;;;;;;;-2.80;100.00;95123.91;1025984;28;20329;-68
2021/04/07 00:23:52;;;;;;;;;;;;;;;-2.59;100.00;95147.84;1026236;28;19922;-69
2021/04/07 00:24:23;;;;;;;;;;;;;;;-2.58;100.00;95154.56;1023204;28;19934;-70
2021/04/07 00:24:53;;;;;;;;;;;;;;;-2.54;100.00;95155.78;1027461;28;19917;-70
2021/04/07 00:25:23;;;;;;;;;;;;;;;-2.54;100.00;95150.63;1027016;28;19953;-69
2021/04/07 00:25:54;;;;;;;;;;;;;;;-2.53;100.00;95150.41;1025428;28;19914;-69
2021/04/07 00:26:24;;;;;;;;;;;;;;;-2.54;100.00;95150.63;1035694;28;19909;-69
2021/04/07 00:26:54;;;;;;;;;;;;;;;-2.59;100.00;95151.19;1036359;28;20275;-70
2021/04/07 00:27:27;;;;;;;;;;;;;;;-2.62;100.00;95149.00;1031808;28;19906;-69
2021/04/07 00:28:00;;;;;;;;;;;;;;;-2.62;100.00;95151.59;1021863;29;19962;-71
2021/04/07 00:28:30;;;;;;;;;;;;;;;-2.58;100.00;95146.84;1023464;28;20312;-69
2021/04/07 00:29:00;;;;;;;;;;;;;;;-2.58;100.00;95152.81;1031991;28;20040;-70
2021/04/07 00:29:31;;;;;;;;;;;;;;;-2.55;100.00;95149.03;1030722;28;19905;-70
2021/04/07 00:30:01;;;;;;;;;;;;;;;-2.54;100.00;95153.19;1033096;28;20325;-69
2021/04/07 00:30:33;;;;;;;;;;;;;;;-2.55;100.00;95151.59;1031421;28;20391;-70
2021/04/07 00:31:03;;;;;;;;;;;;;;;-2.55;100.00;95146.47;1021990;29;19965;-70
2021/04/07 00:31:33;;;;;;;;;;;;;;;-2.56;100.00;95152.59;1026942;28;20330;-69
2021/04/07 00:32:04;;;;;;;;;;;;;;;-2.55;100.00;95144.69;1025885;28;19910;-68
2021/04/07 00:32:34;;;;;;;;;;;;;;;-2.57;100.00;95148.44;1019210;29;19906;-68
2021/04/07 00:33:05;;;;;;;;;;;;;;;-2.56;100.00;95148.25;1027843;28;19910;-70
2021/04/07 00:33:35;;;;;;;;;;;;;;;-2.61;100.00;95150.63;1027580;28;20192;-69
2021/04/07 00:34:05;;;;;;;;;;;;;;;-2.57;100.00;95148.44;1017693;28;20335;-68
2021/04/07 00:34:36;;;;;;;;;;;;;;;-2.61;100.00;95145.47;1025898;28;20005;-70
2021/04/07 00:35:06;;;;;;;;;;;;;;;-2.61;100.00;95143.69;1027995;28;19917;-70
2021/04/07 00:35:37;;;;;;;;;;;;;;;-2.64;100.00;95145.88;1019560;29;19930;-70
2021/04/07 00:36:07;;;;;;;;;;;;;;;-2.65;100.00;95147.66;1026883;28;19921;-69
2021/04/07 00:36:37;;;;;;;;;;;;;;;-2.65;100.00;95139.94;1026470;28;19925;-70
2021/04/07 00:37:08;;;;;;;;;;;;;;;-2.66;100.00;95148.63;1023679;28;19925;-70
2021/04/07 00:37:38;;;;;;;;;;;;;;;-2.65;100.00;95150.22;1028193;28;20064;-70
2021/04/07 00:38:10;;;;;;;;;;;;;;;-2.65;100.00;95150.22;1030290;28;19972;-69
2021/04/07 00:38:40;;;;;;;;;;;;;;;-2.63;100.00;95152.59;1033673;28;20016;-69
2021/04/07 00:39:10;;;;;;;;;;;;;;;-2.66;100.00;95148.63;1020259;29;19922;-70
2021/04/07 00:39:41;;;;;;;;;;;;;;;-2.64;100.00;95149.22;1029988;28;19984;-70
2021/04/07 00:40:11;;;;;;;;;;;;;;;-2.62;100.00;95146.44;1030082;28;20008;-69
2021/04/07 00:40:42;;;;;;;;;;;;;;;-2.59;100.00;95160.69;1027052;28;19918;-70
2021/04/07 00:41:12;;;;;;;;;;;;;;;-2.56;100.00;95147.47;1023192;28;20434;-70
2021/04/07 00:41:43;;;;;;;;;;;;;;;-2.57;100.00;95146.66;1032435;28;19913;-70
2021/04/07 00:42:13;;;;;;;;;;;;;;;-2.58;100.00;95154.56;1033805;28;20176;-70
2021/04/07 00:42:44;;;;;;;;;;;;;;;-2.59;100.00;95151.19;1026282;28;20561;-70
2021/04/07 00:43:14;;;;;;;;;;;;;;;-2.59;100.00;95155.53;1027695;28;19965;-69
2021/04/07 00:43:45;;;;;;;;;;;;;;;-2.59;100.00;95151.19;1026792;28;20072;-70
2021/04/07 00:44:15;;;;;;;;;;;;;;;-2.58;100.00;95155.38;1031044;28;19914;-68
2021/04/07 00:44:45;;;;;;;;;;;;;;;-2.61;100.00;95151.41;1026248;28;19922;-70
2021/04/07 00:45:16;;;;;;;;;;;;;;;-2.59;100.00;95148.63;1024121;28;19914;-70
2021/04/07 00:45:46;;;;;;;;;;;;;;;-2.55;100.00;95151.59;1024066;29;20379;-70
2021/04/07 00:46:16;;;;;;;;;;;;;;;-2.59;100.00;95150.41;1032700;28;19924;-69
2021/04/07 00:46:47;;;;;;;;;;;;;;;-2.61;100.00;95151.41;1030378;28;20008;-69
2021/04/07 00:47:17;;;;;;;;;;;;;;;-2.59;100.00;95148.63;1023848;28;20130;-70
2021/04/07 00:47:51;;;;;;;;;;;;;;;-2.61;100.00;95143.69;1027891;28;20130;-70
2021/04/07 00:48:21;;;;;;;;;;;;;;;-2.64;100.00;95149.22;1026027;28;19918;-68
2021/04/07 00:48:51;;;;;;;;;;;;;;;-2.59;100.00;95152.97;1017856;29;19918;-70
2021/04/07 00:49:21;;;;;;;;;;;;;;;-2.63;100.00;95148.22;1023888;29;19918;-69
2021/04/07 00:49:52;;;;;;;;;;;;;;;-2.67;100.00;95154.75;1028000;28;20086;-70
2021/04/07 00:50:23;;;;;;;;;;;;;;;-2.83;100.00;95120.94;1025787;28;20391;-67
2021/04/07 00:50:54;;;;;;;;;;;;;;;-2.62;100.00;95154.97;1018157;29;19915;-70
2021/04/07 00:51:24;;;;;;;;;;;;;;;-2.63;100.00;95158.50;1027595;28;19918;-70
2021/04/07 00:51:55;;;;;;;;;;;;;;;-2.63;100.00;95147.44;1032063;28;20038;-69
2021/04/07 00:52:25;;;;;;;;;;;;;;;-2.64;100.00;95156.94;1022768;29;19930;-68
2021/04/07 00:52:56;;;;;;;;;;;;;;;-2.59;100.00;95153.75;1025730;28;20166;-69
2021/04/07 00:53:26;;;;;;;;;;;;;;;-2.62;100.00;95151.59;1035060;28;19913;-70
2021/04/07 00:53:56;;;;;;;;;;;;;;;-2.62;100.00;95152.41;1027768;28;20433;-70
2021/04/07 00:54:27;;;;;;;;;;;;;;;-2.60;100.00;95154.75;1022767;29;20277;-69
2021/04/07 00:54:57;;;;;;;;;;;;;;;-2.58;100.00;95155.38;1031871;28;20005;-70
2021/04/07 00:55:28;;;;;;;;;;;;;;;-2.59;100.00;95158.91;1036424;28;19960;-71
2021/04/07 00:55:59;;;;;;;;;;;;;;;-2.57;100.00;95151.81;1027967;28;19914;-70
2021/04/07 00:56:30;;;;;;;;;;;;;;;-2.58;100.00;95150.22;1034378;28;19920;-69
2021/04/07 00:57:00;;;;;;;;;;;;;;;-2.59;100.00;95155.53;1029001;28;20121;-69
2021/04/07 00:57:30;;;;;;;;;;;;;;;-2.59;100.00;95153.75;1027260;28;19933;-69
2021/04/07 00:58:01;;;;;;;;;;;;;;;-2.60;100.00;95157.31;1024011;29;19915;-71
2021/04/07 00:58:31;;;;;;;;;;;;;;;-2.59;100.00;95158.91;1027640;28;19933;-70
2021/04/07 00:59:01;;;;;;;;;;;;;;;-2.60;100.00;95157.31;1025692;28;20377;-70
2021/04/07 00:59:32;;;;;;;;;;;;;;;-2.58;100.00;95159.69;1026571;28;19914;-70
2021/04/07 01:00:03;;;;;;;;;;;;;;;-2.58;100.00;95154.56;1027651;28;20043;-70
2021/04/07 01:00:33;;;;;;;;;;;;;;;-2.59;100.00;95158.13;1032914;28;19917;-70
2021/04/07 01:01:04;;;;;;;;;;;;;;;-2.62;100.00;95156.72;1026288;28;20267;-70
2021/04/07 01:01:34;;;;;;;;;;;;;;;-2.62;100.00;95154.16;1022142;29;20187;-70
2021/04/07 01:02:05;;;;;;;;;;;;;;;-2.65;100.00;95157.09;1032481;28;19909;-70
2021/04/07 01:02:35;;;;;;;;;;;;;;;-2.66;100.00;95158.09;1027749;28;20473;-70
2021/04/07 01:03:05;;;;;;;;;;;;;;;-2.67;100.00;95152.19;1033816;28;20210;-70
2021/04/07 01:03:36;;;;;;;;;;;;;;;-2.66;100.00;95158.09;1025963;28;20613;-70
2021/04/07 01:04:06;;;;;;;;;;;;;;;-2.61;100.00;95161.69;1027044;28;20334;-70
2021/04/07 01:04:37;;;;;;;;;;;;;;;-2.65;100.00;95160.50;1027471;28;20429;-70
2021/04/07 01:05:08;;;;;;;;;;;;;;;-2.64;100.00;95151.78;1025401;28;19918;-70
2021/04/07 01:05:38;;;;;;;;;;;;;;;-2.61;100.00;95160.88;1019826;28;19922;-70
2021/04/07 01:06:08;;;;;;;;;;;;;;;-2.60;100.00;95162.47;1027944;28;19918;-67
2021/04/07 01:06:42;;;;;;;;;;;;;;;-2.59;100.00;95158.13;1029273;28;20311;-71
2021/04/07 01:07:12;;;;;;;;;;;;;;;-2.62;100.00;95160.09;1024692;28;19978;-69
2021/04/07 01:07:42;;;;;;;;;;;;;;;-2.64;100.00;95164.63;1031735;28;19914;-67
2021/04/07 01:08:13;;;;;;;;;;;;;;;-2.64;100.00;95154.34;1037288;28;19956;-67
2021/04/07 01:08:43;;;;;;;;;;;;;;;-2.64;100.00;95156.94;1021252;29;19918;-69
2021/04/07 01:09:13;;;;;;;;;;;;;;;-2.65;100.00;95155.34;1031962;28;19909;-67
2021/04/07 01:09:44;;;;;;;;;;;;;;;-2.69;100.00;95158.50;1026007;28;19918;-68
2021/04/07 01:10:14;;;;;;;;;;;;;;;-2.64;100.00;95153.56;1023939;29;19969;-70
2021/04/07 01:10:45;;;;;;;;;;;;;;;-2.63;100.00;95158.50;1020512;29;19919;-70
2021/04/07 01:11:17;;;;;;;;;;;;;;;-2.88;100.00;95127.44;1027113;28;20384;-70
2021/04/07 01:11:47;;;;;;;;;;;;;;;-2.69;100.00;95154.13;1025265;28;19924;-69
2021/04/07 01:12:18;;;;;;;;;;;;;;;-2.66;100.00;95155.53;1024408;28;19925;-70
2021/04/07 01:12:48;;;;;;;;;;;;;;;-2.66;100.00;95150.41;1023259;29;19915;-70
2021/04/07 01:13:18;;;;;;;;;;;;;;;-2.67;100.00;95157.31;1036081;28;19913;-70
2021/04/07 01:13:49;;;;;;;;;;;;;;;-2.68;100.00;95150.59;1033061;28;20399;-69
2021/04/07 01:14:19;;;;;;;;;;;;;;;-2.67;100.00;95153.97;1033952;28;20019;-70
2021/04/07 01:14:50;;;;;;;;;;;;;;;-2.70;100.00;95155.13;1023354;28;19910;-70
2021/04/07 01:15:20;;;;;;;;;;;;;;;-2.71;100.00;95153.56;1031918;28;19917;-70
2021/04/07 01:15:50;;;;;;;;;;;;;;;-2.72;100.00;95148.59;1033068;28;19941;-67
2021/04/07 01:16:21;;;;;;;;;;;;;;;-2.74;100.00;95155.72;1029077;28;19937;-69
2021/04/07 01:16:51;;;;;;;;;;;;;;;-2.75;100.00;95160.06;1023269;29;19917;-68
2021/04/07 01:17:22;;;;;;;;;;;;;;;-2.75;100.00;95152.38;1027843;28;19914;-68
2021/04/07 01:17:52;;;;;;;;;;;;;;;-2.75;100.00;95154.13;1026907;28;19918;-68
2021/04/07 01:18:22;;;;;;;;;;;;;;;-2.78;100.00;95147.63;1029466;28;20461;-69
2021/04/07 01:18:53;;;;;;;;;;;;;;;-2.78;100.00;95152.75;1022741;29;19910;-69
2021/04/07 01:19:24;;;;;;;;;;;;;;;-2.78;100.00;95147.63;1034784;28;19968;-70
2021/04/07 01:19:54;;;;;;;;;;;;;;;-2.78;100.00;95151.94;1032022;28;20391;-71
2021/04/07 01:20:25;;;;;;;;;;;;;;;-2.78;100.00;95150.19;1029962;28;19913;-69
2021/04/07 01:20:55;;;;;;;;;;;;;;;-2.77;100.00;95146.63;1019722;29;19906;-69
2021/04/07 01:21:25;;;;;;;;;;;;;;;-2.78;100.00;95145.06;1027712;28;20429;-70
2021/04/07 01:21:56;;;;;;;;;;;;;;;-2.76;100.00;95153.34;1031863;28;20446;-70
2021/04/07 01:22:26;;;;;;;;;;;;;;;-2.77;100.00;95149.19;1019748;28;20320;-70
2021/04/07 01:23:00;;;;;;;;;;;;;;;-2.78;100.00;95150.19;1019611;28;19914;-70
2021/04/07 01:23:31;;;;;;;;;;;;;;;-2.77;100.00;95146.63;1030742;28;19913;-71
2021/04/07 01:24:02;;;;;;;;;;;;;;;-2.75;100.00;95149.00;1031885;28;19914;-69
2021/04/07 01:24:33;;;;;;;;;;;;;;;-2.75;100.00;95147.22;1026617;28;19914;-68
2021/04/07 01:25:04;;;;;;;;;;;;;;;-2.75;100.00;95147.22;1024935;28;20426;-68
2021/04/07 01:25:34;;;;;;;;;;;;;;;-2.74;100.00;95153.94;1027651;28;19905;-69
2021/04/07 01:26:04;;;;;;;;;;;;;;;-2.76;100.00;95148.19;1035364;28;20395;-70
2021/04/07 01:26:35;;;;;;;;;;;;;;;-2.75;100.00;95144.66;1027698;28;20440;-70
2021/04/07 01:27:05;;;;;;;;;;;;;;;-2.74;100.00;95148.81;1014064;29;20487;-69
2021/04/07 01:27:36;;;;;;;;;;;;;;;-2.74;100.00;95153.94;1027624;28;19941;-69
2021/04/07 01:28:07;;;;;;;;;;;;;;;-2.72;100.00;95154.53;1027996;28;19916;-70
2021/04/07 01:28:37;;;;;;;;;;;;;;;-2.75;100.00;95147.22;1019544;28;19933;-70
2021/04/07 01:29:08;;;;;;;;;;;;;;;-2.72;100.00;95153.75;1027242;28;19917;-70
2021/04/07 01:29:38;;;;;;;;;;;;;;;-2.71;100.00;95153.56;1028801;28;20363;-69
2021/04/07 01:30:09;;;;;;;;;;;;;;;-2.71;100.00;95150.22;1023286;28;20288;-70
2021/04/07 01:30:46;;;;;;;;;;;;;;;-2.71;100.00;95145.84;1027290;28;19942;-70
2021/04/07 01:31:16;;;;;;;;;;;;;;;-2.72;100.00;95148.59;1027388;28;20256;-70
2021/04/07 01:31:50;;;;;;;;;;;;;;;-2.72;100.00;95149.38;1016865;29;19918;-70
2021/04/07 01:32:20;;;;;;;;;;;;;;;-2.71;100.00;95148.44;1023551;29;19911;-70
2021/04/07 01:32:50;;;;;;;;;;;;;;;-2.71;100.00;95148.44;1032541;28;19914;-70
2021/04/07 01:33:24;;;;;;;;;;;;;;;-2.65;100.00;95150.22;1035706;28;19917;-69
2021/04/07 01:33:54;;;;;;;;;;;;;;;-2.66;100.00;95151.19;1022474;28;20555;-70
2021/04/07 01:34:25;;;;;;;;;;;;;;;-2.65;100.00;95152.78;1027341;28;19914;-70
2021/04/07 01:34:55;;;;;;;;;;;;;;;-2.65;100.00;95150.22;1030979;28;19971;-69
2021/04/07 01:35:25;;;;;;;;;;;;;;;-2.65;100.00;95150.22;1035829;28;19948;-71
2021/04/07 01:35:56;;;;;;;;;;;;;;;-2.64;100.00;95151.78;1030464;28;19985;-71
2021/04/07 01:36:26;;;;;;;;;;;;;;;-2.63;100.00;95145.66;1017764;29;19911;-70
2021/04/07 01:36:57;;;;;;;;;;;;;;;-2.64;100.00;95145.88;1019208;29;19914;-70
2021/04/07 01:37:27;;;;;;;;;;;;;;;-2.63;100.00;95153.38;1028005;28;19906;-70
2021/04/07 01:37:58;;;;;;;;;;;;;;;-2.61;100.00;95151.41;1030036;28;19917;-68
2021/04/07 01:38:28;;;;;;;;;;;;;;;-2.56;100.00;95150.03;1033256;28;19913;-70
2021/04/07 01:38:58;;;;;;;;;;;;;;;-2.58;100.00;95150.22;1031288;28;20408;-70
2021/04/07 01:39:29;;;;;;;;;;;;;;;-2.55;100.00;95154.16;1028381;28;19921;-70
2021/04/07 01:39:59;;;;;;;;;;;;;;;-2.54;100.00;95150.63;1031677;28;19909;-70
2021/04/07 01:40:30;;;;;;;;;;;;;;;-2.54;100.00;95150.63;1030847;28;19910;-71
2021/04/07 01:41:00;;;;;;;;;;;;;;;-2.54;100.00;95150.63;1029814;28;19924;-69
2021/04/07 01:41:30;;;;;;;;;;;;;;;-2.51;100.00;95155.38;1035187;28;20363;-69
2021/04/07 01:42:01;;;;;;;;;;;;;;;-2.50;100.00;95151.81;1033014;28;19910;-69
2021/04/07 01:42:31;;;;;;;;;;;;;;;-2.51;100.00;95150.25;1029967;28;19912;-68
2021/04/07 01:43:02;;;;;;;;;;;;;;;-2.49;100.00;95153.38;1032292;28;20462;-69
2021/04/07 01:43:32;;;;;;;;;;;;;;;-2.48;100.00;95154.97;1032482;28;20433;-69
2021/04/07 01:44:02;;;;;;;;;;;;;;;-2.47;100.00;95148.84;1035684;28;20414;-70
2021/04/07 01:44:33;;;;;;;;;;;;;;;-2.46;100.00;95148.66;1030002;28;20518;-70
2021/04/07 01:45:04;;;;;;;;;;;;;;;-2.47;100.00;95159.13;1033896;28;20448;-72
2021/04/07 01:45:34;;;;;;;;;;;;;;;-2.47;100.00;95157.34;1039627;28;19912;-70
2021/04/07 01:46:04;;;;;;;;;;;;;;;-2.43;100.00;95152.63;1036327;28;20662;-70
2021/04/07 01:46:35;;;;;;;;;;;;;;;-2.40;100.00;95149.66;1034341;28;20436;-69
2021/04/07 01:47:06;;;;;;;;;;;;;;;-2.39;100.00;95151.22;1033588;28;19949;-69
2021/04/07 01:47:36;;;;;;;;;;;;;;;-2.41;100.00;95150.66;1035645;28;20047;-70
2021/04/07 01:48:06;;;;;;;;;;;;;;;-2.41;100.00;95159.16;1040103;28;19984;-70
2021/04/07 01:48:37;;;;;;;;;;;;;;;-2.40;100.00;95157.38;1042793;28;19912;-67
2021/04/07 01:49:07;;;;;;;;;;;;;;;-2.39;100.00;95153.78;1038516;28;19959;-70
2021/04/07 01:49:37;;;;;;;;;;;;;;;-2.40;100.00;95157.38;1044127;28;20345;-70
2021/04/07 01:50:08;;;;;;;;;;;;;;;-2.39;100.00;95156.38;1040558;28;19941;-70
2021/04/07 01:50:39;;;;;;;;;;;;;;;-2.40;100.00;95157.38;1040157;28;19917;-70
2021/04/07 01:51:09;;;;;;;;;;;;;;;-2.41;100.00;95155.78;1037036;28;20523;-68
2021/04/07 01:51:40;;;;;;;;;;;;;;;-2.39;100.00;95153.78;1035461;28;19948;-70
2021/04/07 01:52:10;;;;;;;;;;;;;;;-2.39;100.00;95156.38;1039170;28;20253;-70
2021/04/07 01:52:40;;;;;;;;;;;;;;;-2.37;100.00;95159.53;1036052;28;19957;-70
2021/04/07 01:53:11;;;;;;;;;;;;;;;-2.37;100.00;95162.13;1033496;28;19917;-70
2021/04/07 01:53:41;;;;;;;;;;;;;;;-2.36;100.00;95155.97;1033194;28;19917;-69
2021/04/07 01:54:12;;;;;;;;;;;;;;;-2.36;100.00;95153.41;1036097;28;19916;-70
2021/04/07 01:54:43;;;;;;;;;;;;;;;-2.37;100.00;95156.97;1042360;28;19968;-70
2021/04/07 01:55:13;;;;;;;;;;;;;;;-2.41;100.00;95159.16;1042012;28;19909;-69
2021/04/07 01:55:43;;;;;;;;;;;;;;;-2.42;100.00;95159.31;1043069;28;19923;-70
2021/04/07 01:56:14;;;;;;;;;;;;;;;-2.39;100.00;95159.72;1039798;28;19916;-70
2021/04/07 01:56:47;;;;;;;;;;;;;;;-2.37;100.00;95156.97;1034950;28;19909;-69
2021/04/07 01:57:17;;;;;;;;;;;;;;;-2.40;100.00;95163.28;1029165;28;19916;-69
2021/04/07 01:57:48;;;;;;;;;;;;;;;-2.43;100.00;95158.53;1031433;28;20530;-70
2021/04/07 01:58:18;;;;;;;;;;;;;;;-2.39;100.00;95158.94;1037994;28;19913;-70
2021/04/07 01:58:55;;;;;;;;;;;;;;;-2.40;100.00;95160.72;1033707;28;19910;-67
2021/04/07 01:59:26;;;;;;;;;;;;;;;-2.40;100.00;95163.28;1034822;28;19963;-70
2021/04/07 01:59:56;;;;;;;;;;;;;;;-2.40;100.00;95159.94;1031106;28;20016;-70
2021/04/07 02:00:27;;;;;;;;;;;;;;;-2.41;100.00;95150.66;1024353;28;19925;-69
2021/04/07 02:00:58;;;;;;;;;;;;;;;-2.41;100.00;95158.34;1022752;28;19910;-69
2021/04/07 02:01:29;;;;;;;;;;;;;;;-2.40;100.00;95157.38;1021888;28;19914;-70
2021/04/07 02:01:59;;;;;;;;;;;;;;;-2.41;100.00;95156.56;1027051;28;20310;-70
2021/04/07 02:02:29;;;;;;;;;;;;;;;-2.40;100.00;95159.94;1036458;28;19916;-70
2021/04/07 02:03:03;;;;;;;;;;;;;;;-2.38;100.00;95174.16;1038721;28;19913;-70
2021/04/07 02:03:34;;;;;;;;;;;;;;;-2.43;100.00;95160.31;1042453;28;19912;-70
2021/04/07 02:04:04;;;;;;;;;;;;;;;-2.43;100.00;95161.09;1038628;28;19917;-70
2021/04/07 02:04:35;;;;;;;;;;;;;;;-2.46;100.00;95166.63;1036460;28;19909;-70
2021/04/07 02:05:05;;;;;;;;;;;;;;;-2.69;100.00;95131.03;1029841;28;19968;-69
2021/04/07 02:05:35;;;;;;;;;;;;;;;-2.45;100.00;95164.84;1028024;28;19918;-70
2021/04/07 02:06:06;;;;;;;;;;;;;;;-2.45;100.00;95165.66;1031088;28;20334;-69
2021/04/07 02:06:36;;;;;;;;;;;;;;;-2.46;100.00;95165.84;1036113;28;19916;-70
2021/04/07 02:07:10;;;;;;;;;;;;;;;-2.48;100.00;95160.09;1033968;28;19909;-69
2021/04/07 02:07:40;;;;;;;;;;;;;;;-2.49;100.00;95169.59;1031793;28;19909;-70
2021/04/07 02:08:10;;;;;;;;;;;;;;;-2.51;100.00;95168.22;1031277;28;19949;-69
2021/04/07 02:08:41;;;;;;;;;;;;;;;-2.53;100.00;95173.53;1031706;28;20383;-70
2021/04/07 02:09:11;;;;;;;;;;;;;;;-2.52;100.00;95172.53;1034385;28;19983;-69
2021/04/07 02:09:42;;;;;;;;;;;;;;;-2.54;100.00;95166.03;1029628;28;20325;-70
2021/04/07 02:10:12;;;;;;;;;;;;;;;-2.52;100.00;95172.53;1031092;28;19924;-69
2021/04/07 02:10:42;;;;;;;;;;;;;;;-2.54;100.00;95166.03;1031511;28;19940;-70
2021/04/07 02:11:13;;;;;;;;;;;;;;;-2.52;100.00;95174.31;1027364;28;20371;-69
2021/04/07 02:11:44;;;;;;;;;;;;;;;-2.50;100.00;95169.78;1029096;28;19921;-69
2021/04/07 02:12:14;;;;;;;;;;;;;;;-2.50;100.00;95172.38;1033772;28;19963;-70
2021/04/07 02:12:44;;;;;;;;;;;;;;;-2.51;100.00;95170.78;1027507;28;19945;-70
2021/04/07 02:13:15;;;;;;;;;;;;;;;-2.50;100.00;95172.38;1035869;28;19926;-69
2021/04/07 02:13:45;;;;;;;;;;;;;;;-2.49;100.00;95168.81;1037196;28;20390;-69
2021/04/07 02:14:15;;;;;;;;;;;;;;;-2.49;100.00;95166.22;1041783;28;19962;-69
2021/04/07 02:14:46;;;;;;;;;;;;;;;-2.49;100.00;95167.03;1039704;28;19935;-70
2021/04/07 02:15:16;;;;;;;;;;;;;;;-2.50;100.00;95172.38;1035546;28;19910;-70
2021/04/07 02:15:46;;;;;;;;;;;;;;;-2.50;100.00;95170.59;1031999;28;20181;-69
2021/04/07 02:16:17;;;;;;;;;;;;;;;-2.48;100.00;95176.31;1034435;28;20029;-69
2021/04/07 02:16:53;;;;;;;;;;;;;;;-2.51;100.00;95175.94;1038034;28;19917;-70
2021/04/07 02:17:23;;;;;;;;;;;;;;;-2.52;100.00;95169.19;1039186;28;19914;-69
2021/04/07 02:17:54;;;;;;;;;;;;;;;-2.50;100.00;95167.22;1036685;28;19909;-70
2021/04/07 02:18:25;;;;;;;;;;;;;;;-2.49;100.00;95179.06;1038886;28;19962;-70
2021/04/07 02:18:55;;;;;;;;;;;;;;;-2.48;100.00;95178.06;1035659;28;19963;-69
2021/04/07 02:19:26;;;;;;;;;;;;;;;-2.49;100.00;95169.59;1035658;28;19920;-69
2021/04/07 02:19:56;;;;;;;;;;;;;;;-2.53;100.00;95175.31;1034232;28;19913;-69
2021/04/07 02:20:26;;;;;;;;;;;;;;;-2.55;100.00;95167.78;1037971;28;20023;-69
2021/04/07 02:20:56;;;;;;;;;;;;;;;-2.55;100.00;95169.56;1039375;28;20382;-69
2021/04/07 02:21:27;;;;;;;;;;;;;;;-2.55;100.00;95175.50;1036024;28;19920;-70
2021/04/07 02:22:06;;;;;;;;;;;;;;;-2.56;100.00;95175.72;1033689;28;19914;-69
2021/04/07 02:22:36;;;;;;;;;;;;;;;-2.56;100.00;95179.06;1035281;28;19913;-69
2021/04/07 02:23:07;;;;;;;;;;;;;;;-2.56;100.00;95173.94;1040885;28;19909;-70
2021/04/07 02:23:37;;;;;;;;;;;;;;;-2.54;100.00;95176.31;1040264;28;19925;-70
2021/04/07 02:24:07;;;;;;;;;;;;;;;-2.53;100.00;95177.88;1034376;28;19913;-69
2021/04/07 02:24:38;;;;;;;;;;;;;;;-2.56;100.00;95180.84;1034186;28;19913;-69
2021/04/07 02:25:09;;;;;;;;;;;;;;;-2.56;100.00;95175.72;1039396;28;19960;-69
2021/04/07 02:25:39;;;;;;;;;;;;;;;-2.59;100.00;95176.09;1027889;28;19906;-69
2021/04/07 02:26:09;;;;;;;;;;;;;;;-2.60;100.00;95177.88;1025695;28;20282;-70
2021/04/07 02:26:40;;;;;;;;;;;;;;;-2.59;100.00;95173.53;1025827;28;19965;-69
2021/04/07 02:27:11;;;;;;;;;;;;;;;-2.62;100.00;95172.94;1023501;28;19914;-70
2021/04/07 02:27:41;;;;;;;;;;;;;;;-2.64;100.00;95174.13;1039554;28;19905;-70
2021/04/07 02:28:11;;;;;;;;;;;;;;;-2.65;100.00;95178.47;1034647;28;20457;-69
2021/04/07 02:28:41;;;;;;;;;;;;;;;-2.66;100.00;95176.06;1029281;28;19936;-69
2021/04/07 02:29:12;;;;;;;;;;;;;;;-2.67;100.00;95177.84;1031035;28;20526;-69
2021/04/07 02:29:44;;;;;;;;;;;;;;;-2.70;100.00;95174.88;1031990;28;19968;-70
2021/04/07 02:30:15;;;;;;;;;;;;;;;-2.70;100.00;95180.03;1032443;28;19910;-68
2021/04/07 02:30:45;;;;;;;;;;;;;;;-2.68;100.00;95181.41;1033852;28;19917;-69
2021/04/07 02:31:16;;;;;;;;;;;;;;;-2.69;100.00;95182.38;1039677;28;20328;-70
2021/04/07 02:31:46;;;;;;;;;;;;;;;-2.73;100.00;95176.06;1039569;28;20294;-70
2021/04/07 02:32:16;;;;;;;;;;;;;;;-2.73;100.00;95180.41;1039953;28;19909;-69
2021/04/07 02:32:47;;;;;;;;;;;;;;;-2.74;100.00;95187.31;1041515;28;19919;-70
2021/04/07 02:33:17;;;;;;;;;;;;;;;-2.74;100.00;95178.84;1041851;28;19913;-70
2021/04/07 02:33:47;;;;;;;;;;;;;;;-2.73;100.00;95177.84;1034685;28;20396;-68
2021/04/07 02:34:18;;;;;;;;;;;;;;;-2.75;100.00;95182.38;1031127;28;19914;-68
2021/04/07 02:34:48;;;;;;;;;;;;;;;-2.76;100.00;95183.34;1025007;28;19914;-70
2021/04/07 02:35:18;;;;;;;;;;;;;;;-2.74;100.00;95187.31;1026968;28;20779;-69
2021/04/07 02:35:49;;;;;;;;;;;;;;;-2.77;100.00;95184.34;1039623;28;19928;-69
2021/04/07 02:36:19;;;;;;;;;;;;;;;-2.75;100.00;95185.75;1035857;28;19913;-70
2021/04/07 02:36:49;;;;;;;;;;;;;;;-2.78;100.00;95183.56;1033319;28;20015;-69
2021/04/07 02:37:20;;;;;;;;;;;;;;;-2.76;100.00;95188.50;1030199;28;20399;-70